Terminal Aerodrome Forecast
Issued by NWS

Home | Current Version | Previous Version | Text Only | Print | Product List | Glossary On
Versions: 1 2 3 4 5 6 7 8 9 10 11 12 13 14 15 16 17 18 19
839
FTUS43 KGRR 022330
TAFBTL
TAF
KBTL 022330Z 0300/0324 04004KT P6SM BKN050
     FM031000 30004KT P6SM BKN080
     FM031900 26011KT P6SM BKN250=

USA.gov is the U.S. government's official web portal to all federal, state and local government web resources and services.